sensor_id;sensor_type;location;lat;lon;timestamp;P1;durP1;ratioP1;P2;durP2;ratioP2
19339;SDS011;9804;52.350;6.684;2022-10-10T00:00:39;8.30;;;6.00;;
19339;SDS011;9804;52.350;6.684;2022-10-10T00:03:05;11.33;;;6.10;;
19339;SDS011;9804;52.350;6.684;2022-10-10T00:05:32;10.10;;;5.47;;
19339;SDS011;9804;52.350;6.684;2022-10-10T00:07:57;9.43;;;6.30;;
19339;SDS011;9804;52.350;6.684;2022-10-10T00:10:23;9.97;;;6.10;;
19339;SDS011;9804;52.350;6.684;2022-10-10T00:12:49;8.87;;;5.80;;
19339;SDS011;9804;52.350;6.684;2022-10-10T00:15:14;9.13;;;6.60;;
19339;SDS011;9804;52.350;6.684;2022-10-10T00:17:40;10.43;;;6.53;;
19339;SDS011;9804;52.350;6.684;2022-10-10T00:20:08;10.87;;;6.67;;
19339;SDS011;9804;52.350;6.684;2022-10-10T00:22:34;11.53;;;6.73;;
19339;SDS011;9804;52.350;6.684;2022-10-10T00:24:59;10.37;;;6.50;;
19339;SDS011;9804;52.350;6.684;2022-10-10T00:27:25;10.07;;;7.13;;
19339;SDS011;9804;52.350;6.684;2022-10-10T00:29:50;12.43;;;6.83;;
19339;SDS011;9804;52.350;6.684;2022-10-10T00:32:15;11.43;;;6.40;;
19339;SDS011;9804;52.350;6.684;2022-10-10T00:34:41;11.60;;;6.30;;
19339;SDS011;9804;52.350;6.684;2022-10-10T00:37:06;9.57;;;6.47;;
19339;SDS011;9804;52.350;6.684;2022-10-10T00:39:31;10.40;;;6.17;;
19339;SDS011;9804;52.350;6.684;2022-10-10T00:41:57;10.63;;;6.30;;
19339;SDS011;9804;52.350;6.684;2022-10-10T00:44:22;10.40;;;6.13;;
19339;SDS011;9804;52.350;6.684;2022-10-10T00:46:47;8.37;;;6.40;;
19339;SDS011;9804;52.350;6.684;2022-10-10T00:49:17;8.67;;;5.90;;
19339;SDS011;9804;52.350;6.684;2022-10-10T00:51:45;10.83;;;6.23;;
19339;SDS011;9804;52.350;6.684;2022-10-10T00:54:13;9.43;;;5.90;;
19339;SDS011;9804;52.350;6.684;2022-10-10T00:56:54;9.57;;;6.53;;
19339;SDS011;9804;52.350;6.684;2022-10-10T00:59:25;9.57;;;6.30;;
19339;SDS011;9804;52.350;6.684;2022-10-10T01:01:54;10.67;;;6.10;;
19339;SDS011;9804;52.350;6.684;2022-10-10T01:04:39;10.97;;;6.67;;
19339;SDS011;9804;52.350;6.684;2022-10-10T01:07:12;12.57;;;6.40;;
19339;SDS011;9804;52.350;6.684;2022-10-10T01:09:40;12.40;;;6.47;;
19339;SDS011;9804;52.350;6.684;2022-10-10T01:12:12;9.97;;;5.97;;
19339;SDS011;9804;52.350;6.684;2022-10-10T01:15:01;9.97;;;6.13;;
19339;SDS011;9804;52.350;6.684;2022-10-10T01:17:34;8.47;;;6.20;;
19339;SDS011;9804;52.350;6.684;2022-10-10T01:20:22;7.50;;;6.03;;
19339;SDS011;9804;52.350;6.684;2022-10-10T01:22:59;11.07;;;6.47;;
19339;SDS011;9804;52.350;6.684;2022-10-10T01:26:00;10.73;;;6.50;;
19339;SDS011;9804;52.350;6.684;2022-10-10T01:31:10;15.97;;;7.07;;
19339;SDS011;9804;52.350;6.684;2022-10-10T01:33:53;11.83;;;7.13;;
19339;SDS011;9804;52.350;6.684;2022-10-10T01:36:58;16.17;;;6.90;;
19339;SDS011;9804;52.350;6.684;2022-10-10T01:39:41;12.70;;;6.47;;
19339;SDS011;9804;52.350;6.684;2022-10-10T01:42:24;11.67;;;6.43;;
19339;SDS011;9804;52.350;6.684;2022-10-10T01:44:54;13.47;;;6.70;;
19339;SDS011;9804;52.350;6.684;2022-10-10T01:47:21;9.67;;;6.70;;
19339;SDS011;9804;52.350;6.684;2022-10-10T01:49:48;9.27;;;6.97;;
19339;SDS011;9804;52.350;6.684;2022-10-10T01:58:02;10.83;;;6.50;;
19339;SDS011;9804;52.350;6.684;2022-10-10T02:00:44;10.00;;;6.87;;
19339;SDS011;9804;52.350;6.684;2022-10-10T02:03:19;10.97;;;6.87;;
19339;SDS011;9804;52.350;6.684;2022-10-10T02:05:52;12.60;;;6.60;;
19339;SDS011;9804;52.350;6.684;2022-10-10T02:10:59;12.33;;;7.13;;
19339;SDS011;9804;52.350;6.684;2022-10-10T02:13:50;8.20;;;6.73;;
19339;SDS011;9804;52.350;6.684;2022-10-10T02:16:23;10.23;;;6.67;;
19339;SDS011;9804;52.350;6.684;2022-10-10T02:18:53;14.67;;;6.70;;
19339;SDS011;9804;52.350;6.684;2022-10-10T02:21:21;12.33;;;7.03;;
19339;SDS011;9804;52.350;6.684;2022-10-10T02:23:49;10.70;;;6.83;;
19339;SDS011;9804;52.350;6.684;2022-10-10T02:26:18;10.23;;;6.53;;
19339;SDS011;9804;52.350;6.684;2022-10-10T02:28:50;10.00;;;6.90;;
19339;SDS011;9804;52.350;6.684;2022-10-10T02:31:30;13.23;;;6.73;;
19339;SDS011;9804;52.350;6.684;2022-10-10T02:34:17;8.93;;;6.23;;
19339;SDS011;9804;52.350;6.684;2022-10-10T02:36:48;10.43;;;6.63;;
19339;SDS011;9804;52.350;6.684;2022-10-10T02:39:15;10.83;;;6.60;;
19339;SDS011;9804;52.350;6.684;2022-10-10T02:41:42;11.50;;;6.87;;
19339;SDS011;9804;52.350;6.684;2022-10-10T02:44:10;15.77;;;7.77;;
19339;SDS011;9804;52.350;6.684;2022-10-10T02:46:37;12.13;;;6.83;;
19339;SDS011;9804;52.350;6.684;2022-10-10T02:49:02;13.80;;;6.87;;
19339;SDS011;9804;52.350;6.684;2022-10-10T02:51:31;9.40;;;6.33;;
19339;SDS011;9804;52.350;6.684;2022-10-10T02:53:57;13.80;;;6.83;;
19339;SDS011;9804;52.350;6.684;2022-10-10T02:56:22;11.70;;;6.77;;
19339;SDS011;9804;52.350;6.684;2022-10-10T02:58:48;8.20;;;5.80;;
19339;SDS011;9804;52.350;6.684;2022-10-10T03:01:13;8.40;;;6.70;;
19339;SDS011;9804;52.350;6.684;2022-10-10T03:03:38;11.53;;;6.97;;
19339;SDS011;9804;52.350;6.684;2022-10-10T03:06:04;10.77;;;7.13;;
19339;SDS011;9804;52.350;6.684;2022-10-10T03:08:29;11.00;;;6.37;;
19339;SDS011;9804;52.350;6.684;2022-10-10T03:10:58;8.90;;;6.63;;
19339;SDS011;9804;52.350;6.684;2022-10-10T03:13:25;11.50;;;7.07;;
19339;SDS011;9804;52.350;6.684;2022-10-10T03:15:50;14.13;;;7.43;;
19339;SDS011;9804;52.350;6.684;2022-10-10T03:18:16;9.40;;;6.60;;
19339;SDS011;9804;52.350;6.684;2022-10-10T03:20:43;10.17;;;6.33;;
19339;SDS011;9804;52.350;6.684;2022-10-10T03:23:09;10.73;;;6.50;;
19339;SDS011;9804;52.350;6.684;2022-10-10T03:25:38;15.60;;;7.63;;
19339;SDS011;9804;52.350;6.684;2022-10-10T03:28:04;11.83;;;7.13;;
19339;SDS011;9804;52.350;6.684;2022-10-10T03:30:29;12.07;;;7.00;;
19339;SDS011;9804;52.350;6.684;2022-10-10T03:32:55;11.63;;;6.87;;
19339;SDS011;9804;52.350;6.684;2022-10-10T03:35:20;9.07;;;6.20;;
19339;SDS011;9804;52.350;6.684;2022-10-10T03:37:45;12.50;;;6.80;;
19339;SDS011;9804;52.350;6.684;2022-10-10T03:40:11;14.67;;;7.10;;
19339;SDS011;9804;52.350;6.684;2022-10-10T03:42:36;9.33;;;6.80;;
19339;SDS011;9804;52.350;6.684;2022-10-10T03:45:01;13.33;;;7.00;;
19339;SDS011;9804;52.350;6.684;2022-10-10T03:47:27;9.17;;;6.03;;
19339;SDS011;9804;52.350;6.684;2022-10-10T03:49:52;11.57;;;6.77;;
19339;SDS011;9804;52.350;6.684;2022-10-10T03:52:18;16.03;;;6.67;;
19339;SDS011;9804;52.350;6.684;2022-10-10T03:54:43;12.77;;;7.17;;
19339;SDS011;9804;52.350;6.684;2022-10-10T03:57:08;11.83;;;7.10;;
19339;SDS011;9804;52.350;6.684;2022-10-10T03:59:34;13.17;;;7.27;;
19339;SDS011;9804;52.350;6.684;2022-10-10T04:01:59;9.63;;;6.90;;
19339;SDS011;9804;52.350;6.684;2022-10-10T04:04:24;10.63;;;6.57;;
19339;SDS011;9804;52.350;6.684;2022-10-10T04:06:50;11.47;;;6.97;;
19339;SDS011;9804;52.350;6.684;2022-10-10T04:09:15;12.83;;;7.13;;
19339;SDS011;9804;52.350;6.684;2022-10-10T04:11:40;12.77;;;7.00;;
19339;SDS011;9804;52.350;6.684;2022-10-10T04:14:07;10.17;;;6.67;;
19339;SDS011;9804;52.350;6.684;2022-10-10T04:16:32;11.03;;;6.90;;
19339;SDS011;9804;52.350;6.684;2022-10-10T04:18:58;12.13;;;7.03;;
19339;SDS011;9804;52.350;6.684;2022-10-10T04:21:23;12.13;;;6.93;;
19339;SDS011;9804;52.350;6.684;2022-10-10T04:23:48;8.40;;;6.40;;
19339;SDS011;9804;52.350;6.684;2022-10-10T04:26:14;10.00;;;6.53;;
19339;SDS011;9804;52.350;6.684;2022-10-10T04:28:39;18.50;;;5.93;;
19339;SDS011;9804;52.350;6.684;2022-10-10T04:31:04;14.63;;;6.43;;
19339;SDS011;9804;52.350;6.684;2022-10-10T04:33:30;13.30;;;6.30;;
19339;SDS011;9804;52.350;6.684;2022-10-10T04:35:55;12.53;;;6.73;;
19339;SDS011;9804;52.350;6.684;2022-10-10T04:38:20;12.50;;;6.23;;
19339;SDS011;9804;52.350;6.684;2022-10-10T04:40:47;12.27;;;6.43;;
19339;SDS011;9804;52.350;6.684;2022-10-10T04:43:14;12.50;;;6.67;;
19339;SDS011;9804;52.350;6.684;2022-10-10T04:45:39;10.60;;;6.10;;
19339;SDS011;9804;52.350;6.684;2022-10-10T04:48:05;12.87;;;7.03;;
19339;SDS011;9804;52.350;6.684;2022-10-10T04:50:30;11.80;;;6.33;;
19339;SDS011;9804;52.350;6.684;2022-10-10T04:52:56;11.53;;;5.83;;
19339;SDS011;9804;52.350;6.684;2022-10-10T04:55:21;13.57;;;6.60;;
19339;SDS011;9804;52.350;6.684;2022-10-10T04:57:47;11.60;;;6.63;;
19339;SDS011;9804;52.350;6.684;2022-10-10T05:00:12;9.87;;;6.10;;
19339;SDS011;9804;52.350;6.684;2022-10-10T05:02:38;8.57;;;6.03;;
19339;SDS011;9804;52.350;6.684;2022-10-10T05:05:03;8.17;;;6.23;;
19339;SDS011;9804;52.350;6.684;2022-10-10T05:07:29;13.00;;;6.80;;
19339;SDS011;9804;52.350;6.684;2022-10-10T05:09:54;10.97;;;6.20;;
19339;SDS011;9804;52.350;6.684;2022-10-10T05:12:19;12.53;;;6.50;;
19339;SDS011;9804;52.350;6.684;2022-10-10T05:14:45;8.80;;;6.20;;
19339;SDS011;9804;52.350;6.684;2022-10-10T05:17:10;12.30;;;5.87;;
19339;SDS011;9804;52.350;6.684;2022-10-10T05:19:35;14.13;;;6.10;;
19339;SDS011;9804;52.350;6.684;2022-10-10T05:22:01;11.80;;;6.20;;
19339;SDS011;9804;52.350;6.684;2022-10-10T05:24:26;9.03;;;5.73;;
19339;SDS011;9804;52.350;6.684;2022-10-10T05:26:52;11.53;;;6.20;;
19339;SDS011;9804;52.350;6.684;2022-10-10T05:29:17;10.00;;;6.00;;
19339;SDS011;9804;52.350;6.684;2022-10-10T05:31:42;13.43;;;6.20;;
19339;SDS011;9804;52.350;6.684;2022-10-10T05:34:11;13.03;;;6.80;;
19339;SDS011;9804;52.350;6.684;2022-10-10T05:36:38;12.13;;;6.13;;
19339;SDS011;9804;52.350;6.684;2022-10-10T05:39:04;11.77;;;6.47;;
19339;SDS011;9804;52.350;6.684;2022-10-10T05:41:30;11.80;;;6.33;;
19339;SDS011;9804;52.350;6.684;2022-10-10T05:43:56;14.80;;;6.70;;
19339;SDS011;9804;52.350;6.684;2022-10-10T05:46:21;12.10;;;6.33;;
19339;SDS011;9804;52.350;6.684;2022-10-10T05:48:48;11.37;;;5.70;;
19339;SDS011;9804;52.350;6.684;2022-10-10T05:51:14;12.63;;;6.80;;
19339;SDS011;9804;52.350;6.684;2022-10-10T05:53:39;9.43;;;6.13;;
19339;SDS011;9804;52.350;6.684;2022-10-10T05:56:05;12.00;;;6.50;;
19339;SDS011;9804;52.350;6.684;2022-10-10T05:58:30;10.13;;;6.40;;
19339;SDS011;9804;52.350;6.684;2022-10-10T06:01:00;11.57;;;6.10;;
19339;SDS011;9804;52.350;6.684;2022-10-10T06:03:27;12.00;;;6.57;;
19339;SDS011;9804;52.350;6.684;2022-10-10T06:05:52;12.13;;;6.50;;
19339;SDS011;9804;52.350;6.684;2022-10-10T06:08:17;12.10;;;6.50;;
19339;SDS011;9804;52.350;6.684;2022-10-10T06:10:43;12.83;;;6.67;;
19339;SDS011;9804;52.350;6.684;2022-10-10T06:13:10;10.27;;;6.57;;
19339;SDS011;9804;52.350;6.684;2022-10-10T06:15:37;12.67;;;6.73;;
19339;SDS011;9804;52.350;6.684;2022-10-10T06:18:02;15.13;;;7.50;;
19339;SDS011;9804;52.350;6.684;2022-10-10T06:20:28;13.40;;;7.33;;
19339;SDS011;9804;52.350;6.684;2022-10-10T06:22:53;12.83;;;7.83;;
19339;SDS011;9804;52.350;6.684;2022-10-10T06:25:19;13.27;;;7.70;;
19339;SDS011;9804;52.350;6.684;2022-10-10T06:27:44;12.05;;;7.22;;
19339;SDS011;9804;52.350;6.684;2022-10-10T06:30:09;15.37;;;7.47;;
19339;SDS011;9804;52.350;6.684;2022-10-10T06:32:35;14.30;;;7.72;;
19339;SDS011;9804;52.350;6.684;2022-10-10T06:35:00;12.27;;;7.40;;
19339;SDS011;9804;52.350;6.684;2022-10-10T06:37:26;12.98;;;7.00;;
19339;SDS011;9804;52.350;6.684;2022-10-10T06:39:51;10.63;;;7.17;;
19339;SDS011;9804;52.350;6.684;2022-10-10T06:42:17;12.37;;;7.57;;
19339;SDS011;9804;52.350;6.684;2022-10-10T06:44:42;11.43;;;7.60;;
19339;SDS011;9804;52.350;6.684;2022-10-10T06:47:07;13.37;;;6.53;;
19339;SDS011;9804;52.350;6.684;2022-10-10T06:49:35;13.23;;;6.37;;
19339;SDS011;9804;52.350;6.684;2022-10-10T06:52:00;11.47;;;6.10;;
19339;SDS011;9804;52.350;6.684;2022-10-10T06:54:26;15.93;;;6.57;;
19339;SDS011;9804;52.350;6.684;2022-10-10T06:56:51;12.80;;;7.17;;
19339;SDS011;9804;52.350;6.684;2022-10-10T06:59:16;13.47;;;6.93;;
19339;SDS011;9804;52.350;6.684;2022-10-10T07:01:42;13.27;;;6.40;;
19339;SDS011;9804;52.350;6.684;2022-10-10T07:04:08;11.90;;;6.83;;
19339;SDS011;9804;52.350;6.684;2022-10-10T07:06:35;15.80;;;7.07;;
19339;SDS011;9804;52.350;6.684;2022-10-10T07:09:00;12.40;;;7.33;;
19339;SDS011;9804;52.350;6.684;2022-10-10T07:11:25;11.50;;;6.90;;
19339;SDS011;9804;52.350;6.684;2022-10-10T07:13:51;14.70;;;6.93;;
19339;SDS011;9804;52.350;6.684;2022-10-10T07:16:18;14.03;;;7.10;;
19339;SDS011;9804;52.350;6.684;2022-10-10T07:18:43;13.07;;;6.90;;
19339;SDS011;9804;52.350;6.684;2022-10-10T07:21:09;10.70;;;6.33;;
19339;SDS011;9804;52.350;6.684;2022-10-10T07:23:34;17.43;;;6.50;;
19339;SDS011;9804;52.350;6.684;2022-10-10T07:26:02;7.90;;;5.85;;
19339;SDS011;9804;52.350;6.684;2022-10-10T07:28:29;12.13;;;6.30;;
19339;SDS011;9804;52.350;6.684;2022-10-10T07:31:04;13.63;;;6.65;;
19339;SDS011;9804;52.350;6.684;2022-10-10T07:33:34;8.65;;;5.45;;
19339;SDS011;9804;52.350;6.684;2022-10-10T07:36:01;8.25;;;5.93;;
19339;SDS011;9804;52.350;6.684;2022-10-10T07:38:26;8.10;;;6.05;;
19339;SDS011;9804;52.350;6.684;2022-10-10T07:40:51;14.65;;;6.35;;
19339;SDS011;9804;52.350;6.684;2022-10-10T07:43:17;10.65;;;6.43;;
19339;SDS011;9804;52.350;6.684;2022-10-10T07:45:42;13.15;;;6.50;;
19339;SDS011;9804;52.350;6.684;2022-10-10T07:48:08;12.88;;;6.63;;
19339;SDS011;9804;52.350;6.684;2022-10-10T07:50:33;10.68;;;6.07;;
19339;SDS011;9804;52.350;6.684;2022-10-10T07:52:58;11.90;;;5.60;;
19339;SDS011;9804;52.350;6.684;2022-10-10T07:55:24;8.55;;;5.63;;
19339;SDS011;9804;52.350;6.684;2022-10-10T07:57:49;9.55;;;6.45;;
19339;SDS011;9804;52.350;6.684;2022-10-10T08:00:15;9.85;;;5.70;;
19339;SDS011;9804;52.350;6.684;2022-10-10T08:02:41;17.83;;;6.43;;
19339;SDS011;9804;52.350;6.684;2022-10-10T08:05:06;11.23;;;6.50;;
19339;SDS011;9804;52.350;6.684;2022-10-10T08:07:32;8.88;;;6.05;;
19339;SDS011;9804;52.350;6.684;2022-10-10T08:09:58;14.82;;;6.70;;
19339;SDS011;9804;52.350;6.684;2022-10-10T08:12:23;13.82;;;6.00;;
19339;SDS011;9804;52.350;6.684;2022-10-10T08:14:49;9.40;;;6.10;;
19339;SDS011;9804;52.350;6.684;2022-10-10T08:17:14;15.13;;;6.05;;
19339;SDS011;9804;52.350;6.684;2022-10-10T08:19:40;9.77;;;5.82;;
19339;SDS011;9804;52.350;6.684;2022-10-10T08:22:05;11.85;;;6.35;;
19339;SDS011;9804;52.350;6.684;2022-10-10T08:24:31;9.70;;;5.68;;
19339;SDS011;9804;52.350;6.684;2022-10-10T08:26:56;11.02;;;5.82;;
19339;SDS011;9804;52.350;6.684;2022-10-10T08:29:22;14.05;;;5.97;;
19339;SDS011;9804;52.350;6.684;2022-10-10T08:31:48;10.65;;;6.45;;
19339;SDS011;9804;52.350;6.684;2022-10-10T08:34:13;10.68;;;6.30;;
19339;SDS011;9804;52.350;6.684;2022-10-10T08:36:38;9.18;;;6.07;;
19339;SDS011;9804;52.350;6.684;2022-10-10T08:39:04;13.70;;;7.38;;
19339;SDS011;9804;52.350;6.684;2022-10-10T08:44:05;10.38;;;6.20;;
19339;SDS011;9804;52.350;6.684;2022-10-10T08:46:45;12.77;;;5.80;;
19339;SDS011;9804;52.350;6.684;2022-10-10T08:49:33;10.95;;;5.88;;
19339;SDS011;9804;52.350;6.684;2022-10-10T08:55:05;11.40;;;5.85;;
19339;SDS011;9804;52.350;6.684;2022-10-10T08:57:55;11.50;;;5.68;;
19339;SDS011;9804;52.350;6.684;2022-10-10T09:00:25;11.30;;;5.10;;
19339;SDS011;9804;52.350;6.684;2022-10-10T09:02:57;8.63;;;5.65;;
19339;SDS011;9804;52.350;6.684;2022-10-10T09:05:28;11.13;;;5.47;;
19339;SDS011;9804;52.350;6.684;2022-10-10T09:10:44;10.82;;;6.10;;
19339;SDS011;9804;52.350;6.684;2022-10-10T09:16:02;11.77;;;5.53;;
19339;SDS011;9804;52.350;6.684;2022-10-10T09:18:39;8.52;;;5.35;;
19339;SDS011;9804;52.350;6.684;2022-10-10T09:21:24;8.30;;;5.50;;
19339;SDS011;9804;52.350;6.684;2022-10-10T09:23:59;7.53;;;5.07;;
19339;SDS011;9804;52.350;6.684;2022-10-10T09:26:43;14.57;;;5.03;;
19339;SDS011;9804;52.350;6.684;2022-10-10T09:29:24;9.60;;;5.18;;
19339;SDS011;9804;52.350;6.684;2022-10-10T09:31:57;10.65;;;5.75;;
19339;SDS011;9804;52.350;6.684;2022-10-10T09:37:36;12.40;;;5.68;;
19339;SDS011;9804;52.350;6.684;2022-10-10T09:42:36;7.78;;;6.03;;
19339;SDS011;9804;52.350;6.684;2022-10-10T09:45:12;8.75;;;5.07;;
19339;SDS011;9804;52.350;6.684;2022-10-10T09:47:43;9.02;;;5.78;;
19339;SDS011;9804;52.350;6.684;2022-10-10T09:50:12;16.45;;;6.25;;
19339;SDS011;9804;52.350;6.684;2022-10-10T09:52:39;12.63;;;5.45;;
19339;SDS011;9804;52.350;6.684;2022-10-10T09:55:28;10.02;;;5.07;;
19339;SDS011;9804;52.350;6.684;2022-10-10T09:57:55;11.30;;;5.45;;
19339;SDS011;9804;52.350;6.684;2022-10-10T10:00:27;9.45;;;5.43;;
19339;SDS011;9804;52.350;6.684;2022-10-10T10:05:28;10.15;;;5.35;;
19339;SDS011;9804;52.350;6.684;2022-10-10T10:07:53;12.57;;;5.05;;
19339;SDS011;9804;52.350;6.684;2022-10-10T10:10:22;8.88;;;5.05;;
19339;SDS011;9804;52.350;6.684;2022-10-10T10:12:50;8.77;;;5.40;;
19339;SDS011;9804;52.350;6.684;2022-10-10T10:15:18;9.57;;;5.30;;
19339;SDS011;9804;52.350;6.684;2022-10-10T10:17:45;7.95;;;5.18;;
19339;SDS011;9804;52.350;6.684;2022-10-10T10:20:32;9.95;;;5.75;;
19339;SDS011;9804;52.350;6.684;2022-10-10T10:22:59;10.70;;;5.55;;
19339;SDS011;9804;52.350;6.684;2022-10-10T10:25:29;11.10;;;5.82;;
19339;SDS011;9804;52.350;6.684;2022-10-10T10:30:36;9.57;;;6.15;;
19339;SDS011;9804;52.350;6.684;2022-10-10T10:33:19;7.18;;;5.15;;
19339;SDS011;9804;52.350;6.684;2022-10-10T10:41:24;8.57;;;5.10;;
19339;SDS011;9804;52.350;6.684;2022-10-10T10:47:05;11.43;;;5.82;;
19339;SDS011;9804;52.350;6.684;2022-10-10T10:50:03;10.25;;;5.20;;
19339;SDS011;9804;52.350;6.684;2022-10-10T10:52:52;9.88;;;5.20;;
19339;SDS011;9804;52.350;6.684;2022-10-10T11:00:33;8.32;;;5.63;;
19339;SDS011;9804;52.350;6.684;2022-10-10T11:08:27;9.00;;;4.90;;
19339;SDS011;9804;52.350;6.684;2022-10-10T11:16:54;8.68;;;5.25;;
19339;SDS011;9804;52.350;6.684;2022-10-10T11:19:28;11.70;;;4.95;;
19339;SDS011;9804;52.350;6.684;2022-10-10T11:22:02;12.32;;;5.22;;
19339;SDS011;9804;52.350;6.684;2022-10-10T11:27:15;11.07;;;5.47;;
19339;SDS011;9804;52.350;6.684;2022-10-10T11:30:03;10.85;;;5.35;;
19339;SDS011;9804;52.350;6.684;2022-10-10T11:32:34;12.68;;;5.82;;
19339;SDS011;9804;52.350;6.684;2022-10-10T11:35:11;11.32;;;5.32;;
19339;SDS011;9804;52.350;6.684;2022-10-10T11:37:42;10.55;;;5.35;;
19339;SDS011;9804;52.350;6.684;2022-10-10T11:43:00;12.75;;;5.65;;
19339;SDS011;9804;52.350;6.684;2022-10-10T11:45:42;8.30;;;5.80;;
19339;SDS011;9804;52.350;6.684;2022-10-10T11:50:52;10.48;;;4.93;;
19339;SDS011;9804;52.350;6.684;2022-10-10T11:53:46;10.43;;;5.38;;
19339;SDS011;9804;52.350;6.684;2022-10-10T11:56:36;11.57;;;5.22;;
19339;SDS011;9804;52.350;6.684;2022-10-10T11:59:22;9.27;;;5.40;;
19339;SDS011;9804;52.350;6.684;2022-10-10T12:01:52;12.00;;;5.22;;
19339;SDS011;9804;52.350;6.684;2022-10-10T12:04:22;12.68;;;4.95;;
19339;SDS011;9804;52.350;6.684;2022-10-10T12:07:04;8.30;;;5.50;;
19339;SDS011;9804;52.350;6.684;2022-10-10T12:09:39;11.23;;;5.75;;
19339;SDS011;9804;52.350;6.684;2022-10-10T12:12:12;7.47;;;5.03;;
19339;SDS011;9804;52.350;6.684;2022-10-10T12:14:46;12.32;;;5.60;;
19339;SDS011;9804;52.350;6.684;2022-10-10T12:17:27;9.60;;;5.28;;
19339;SDS011;9804;52.350;6.684;2022-10-10T12:20:06;7.90;;;4.68;;
19339;SDS011;9804;52.350;6.684;2022-10-10T12:22:35;8.23;;;4.40;;
19339;SDS011;9804;52.350;6.684;2022-10-10T12:27:40;9.90;;;4.72;;
19339;SDS011;9804;52.350;6.684;2022-10-10T12:30:29;7.38;;;4.15;;
19339;SDS011;9804;52.350;6.684;2022-10-10T12:32:55;11.18;;;4.50;;
19339;SDS011;9804;52.350;6.684;2022-10-10T12:35:31;11.80;;;5.18;;
19339;SDS011;9804;52.350;6.684;2022-10-10T12:38:17;8.90;;;4.50;;
19339;SDS011;9804;52.350;6.684;2022-10-10T12:41:02;6.30;;;3.80;;
19339;SDS011;9804;52.350;6.684;2022-10-10T12:46:26;10.20;;;4.63;;
19339;SDS011;9804;52.350;6.684;2022-10-10T12:48:57;10.05;;;4.30;;
19339;SDS011;9804;52.350;6.684;2022-10-10T12:51:23;8.13;;;4.22;;
19339;SDS011;9804;52.350;6.684;2022-10-10T12:53:51;10.50;;;4.40;;
19339;SDS011;9804;52.350;6.684;2022-10-10T12:56:30;7.35;;;4.30;;
19339;SDS011;9804;52.350;6.684;2022-10-10T12:59:00;10.80;;;4.60;;
19339;SDS011;9804;52.350;6.684;2022-10-10T13:01:27;12.32;;;4.60;;
19339;SDS011;9804;52.350;6.684;2022-10-10T13:03:56;11.70;;;4.75;;
19339;SDS011;9804;52.350;6.684;2022-10-10T13:08:54;10.20;;;4.82;;
19339;SDS011;9804;52.350;6.684;2022-10-10T13:11:20;11.30;;;5.45;;
19339;SDS011;9804;52.350;6.684;2022-10-10T13:13:49;8.00;;;4.53;;
19339;SDS011;9804;52.350;6.684;2022-10-10T13:16:17;7.93;;;4.65;;
19339;SDS011;9804;52.350;6.684;2022-10-10T13:18:51;12.90;;;5.05;;
19339;SDS011;9804;52.350;6.684;2022-10-10T13:21:28;9.40;;;4.90;;
19339;SDS011;9804;52.350;6.684;2022-10-10T13:24:03;11.43;;;4.18;;
19339;SDS011;9804;52.350;6.684;2022-10-10T13:26:32;13.18;;;4.30;;
19339;SDS011;9804;52.350;6.684;2022-10-10T13:32:07;8.77;;;4.60;;
19339;SDS011;9804;52.350;6.684;2022-10-10T13:34:38;11.63;;;5.18;;
19339;SDS011;9804;52.350;6.684;2022-10-10T13:37:10;13.10;;;4.80;;
19339;SDS011;9804;52.350;6.684;2022-10-10T13:39:38;10.50;;;5.78;;
19339;SDS011;9804;52.350;6.684;2022-10-10T13:42:05;15.05;;;6.18;;
19339;SDS011;9804;52.350;6.684;2022-10-10T13:44:47;9.68;;;5.78;;
19339;SDS011;9804;52.350;6.684;2022-10-10T13:56:02;14.57;;;6.63;;
19339;SDS011;9804;52.350;6.684;2022-10-10T13:59:16;14.70;;;6.65;;
19339;SDS011;9804;52.350;6.684;2022-10-10T14:04:07;12.15;;;7.72;;
19339;SDS011;9804;52.350;6.684;2022-10-10T14:07:00;17.52;;;7.95;;
19339;SDS011;9804;52.350;6.684;2022-10-10T14:09:31;14.13;;;7.97;;
19339;SDS011;9804;52.350;6.684;2022-10-10T14:12:05;14.77;;;8.00;;
19339;SDS011;9804;52.350;6.684;2022-10-10T14:17:11;21.73;;;8.15;;
19339;SDS011;9804;52.350;6.684;2022-10-10T14:19:38;14.90;;;8.52;;
19339;SDS011;9804;52.350;6.684;2022-10-10T14:22:05;21.27;;;8.70;;
19339;SDS011;9804;52.350;6.684;2022-10-10T14:24:30;15.90;;;9.15;;
19339;SDS011;9804;52.350;6.684;2022-10-10T14:26:55;12.80;;;9.25;;
19339;SDS011;9804;52.350;6.684;2022-10-10T14:29:21;18.05;;;8.93;;
19339;SDS011;9804;52.350;6.684;2022-10-10T14:31:47;14.15;;;9.02;;
19339;SDS011;9804;52.350;6.684;2022-10-10T14:34:13;15.90;;;9.57;;
19339;SDS011;9804;52.350;6.684;2022-10-10T14:36:39;20.75;;;9.05;;
19339;SDS011;9804;52.350;6.684;2022-10-10T14:39:10;14.60;;;9.68;;
19339;SDS011;9804;52.350;6.684;2022-10-10T14:41:38;15.45;;;9.52;;
19339;SDS011;9804;52.350;6.684;2022-10-10T14:44:03;21.88;;;9.95;;
19339;SDS011;9804;52.350;6.684;2022-10-10T14:46:28;16.42;;;9.20;;
19339;SDS011;9804;52.350;6.684;2022-10-10T14:48:54;18.35;;;9.77;;
19339;SDS011;9804;52.350;6.684;2022-10-10T14:51:19;17.23;;;9.25;;
19339;SDS011;9804;52.350;6.684;2022-10-10T14:53:44;17.50;;;9.63;;
19339;SDS011;9804;52.350;6.684;2022-10-10T14:56:10;17.33;;;10.93;;
19339;SDS011;9804;52.350;6.684;2022-10-10T14:58:36;19.33;;;12.35;;
19339;SDS011;9804;52.350;6.684;2022-10-10T15:01:01;13.80;;;5.65;;
19339;SDS011;9804;52.350;6.684;2022-10-10T15:03:27;3.97;;;2.38;;
19339;SDS011;9804;52.350;6.684;2022-10-10T15:05:52;3.13;;;1.75;;
19339;SDS011;9804;52.350;6.684;2022-10-10T15:08:18;5.18;;;2.30;;
19339;SDS011;9804;52.350;6.684;2022-10-10T15:10:43;2.95;;;1.30;;
19339;SDS011;9804;52.350;6.684;2022-10-10T15:13:10;3.22;;;1.08;;
19339;SDS011;9804;52.350;6.684;2022-10-10T15:15:36;3.17;;;1.17;;
19339;SDS011;9804;52.350;6.684;2022-10-10T15:18:01;2.53;;;0.60;;
19339;SDS011;9804;52.350;6.684;2022-10-10T15:20:27;2.65;;;0.73;;
19339;SDS011;9804;52.350;6.684;2022-10-10T15:22:59;2.65;;;0.85;;
19339;SDS011;9804;52.350;6.684;2022-10-10T15:25:28;1.83;;;0.65;;
19339;SDS011;9804;52.350;6.684;2022-10-10T15:27:54;5.30;;;1.55;;
19339;SDS011;9804;52.350;6.684;2022-10-10T15:30:20;10.65;;;1.60;;
19339;SDS011;9804;52.350;6.684;2022-10-10T15:32:46;7.13;;;1.75;;
19339;SDS011;9804;52.350;6.684;2022-10-10T15:35:12;12.68;;;1.77;;
19339;SDS011;9804;52.350;6.684;2022-10-10T15:37:46;11.27;;;2.08;;
19339;SDS011;9804;52.350;6.684;2022-10-10T15:40:13;16.02;;;2.10;;
19339;SDS011;9804;52.350;6.684;2022-10-10T15:42:40;9.88;;;1.60;;
19339;SDS011;9804;52.350;6.684;2022-10-10T15:45:06;20.25;;;2.17;;
19339;SDS011;9804;52.350;6.684;2022-10-10T15:47:32;11.10;;;2.08;;
19339;SDS011;9804;52.350;6.684;2022-10-10T15:49:57;17.45;;;2.13;;
19339;SDS011;9804;52.350;6.684;2022-10-10T15:52:22;8.98;;;1.67;;
19339;SDS011;9804;52.350;6.684;2022-10-10T15:54:48;16.55;;;2.33;;
19339;SDS011;9804;52.350;6.684;2022-10-10T15:57:14;13.85;;;2.33;;
19339;SDS011;9804;52.350;6.684;2022-10-10T15:59:41;14.77;;;2.90;;
19339;SDS011;9804;52.350;6.684;2022-10-10T16:02:08;15.68;;;2.28;;
19339;SDS011;9804;52.350;6.684;2022-10-10T16:04:34;17.98;;;2.38;;
19339;SDS011;9804;52.350;6.684;2022-10-10T16:06:59;14.45;;;2.15;;
19339;SDS011;9804;52.350;6.684;2022-10-10T16:09:25;17.33;;;3.03;;
19339;SDS011;9804;52.350;6.684;2022-10-10T16:11:50;22.00;;;2.65;;
19339;SDS011;9804;52.350;6.684;2022-10-10T16:14:15;13.60;;;2.90;;
19339;SDS011;9804;52.350;6.684;2022-10-10T16:16:41;14.70;;;2.60;;
19339;SDS011;9804;52.350;6.684;2022-10-10T16:19:06;16.95;;;2.47;;
19339;SDS011;9804;52.350;6.684;2022-10-10T16:21:31;13.27;;;2.92;;
19339;SDS011;9804;52.350;6.684;2022-10-10T16:23:57;10.98;;;2.78;;
19339;SDS011;9804;52.350;6.684;2022-10-10T16:26:24;14.40;;;2.20;;
19339;SDS011;9804;52.350;6.684;2022-10-10T16:28:55;8.35;;;1.77;;
19339;SDS011;9804;52.350;6.684;2022-10-10T16:31:21;23.27;;;3.53;;
19339;SDS011;9804;52.350;6.684;2022-10-10T16:33:47;11.05;;;2.03;;